Pella, Idaho
Current Conditions -  °F | °C
As of 10:53 PM on Wednesday 28 Jan 2015 (Local Time) from KBYI Reporting Station
Haze Haze  
Wind Chill: -1°   Ceiling: 300
Heat Index:   Visibility: 6mi
Dew Point:   Wind: 5mph
Humidity: 96%   Direction: 80°E
Pressure: 30.39"   Gusts: NA
Location:  42.5011°N, 113.814°W
Report Text: KBYI 290553Z AUTO 08004KT 6SM BR OVC003 02/01 A3039 RMK AO2 SLP301 T00170011 10067 20017 53007
Loading
Personal Weather Stations






























Interactive Weather Map New forecast layout! Learn more

10-Day Weather Forecast

Advertisements
Track Severe Weather on mobile